Time;durP1;ratioP1;P1;durP2;ratioP2;P2;SDS_P1;SDS_P2;PMS_P1;PMS_P2;Temp;Humidity;BMP_temperature;BMP_pressure;BME280_temperature;BME280_humidity;BME280_pressure;Samples;Min_cycle;Max_cycle;Signal;HPM_P1;HPM_P2
2023/04/03 00:01:01;;;;;;;2.80;2.60;;;6.00;99.90;;;;;;5027913;28;20210;-67
2023/04/03 00:03:27;;;;;;;3.78;3.47;;;6.50;99.90;;;;;;5028269;28;20482;-66
2023/04/03 00:05:53;;;;;;;4.10;3.27;;;5.90;99.90;;;;;;5023824;28;20225;-64
2023/04/03 00:08:19;;;;;;;3.50;3.20;;;5.80;99.90;;;;;;5023870;28;20420;-65
2023/04/03 00:10:45;;;;;;;3.55;3.25;;;5.70;99.90;;;;;;5026704;28;20198;-65
2023/04/03 00:13:10;;;;;;;3.67;3.10;;;6.00;99.90;;;;;;5018818;28;20198;-65
2023/04/03 00:15:37;;;;;;;3.43;3.13;;;5.70;99.90;;;;;;5022816;28;20182;-65
2023/04/03 00:18:03;;;;;;;3.75;3.15;;;5.60;99.90;;;;;;5021246;28;20328;-65
2023/04/03 00:20:29;;;;;;;3.60;3.30;;;5.40;99.90;;;;;;5024945;28;20213;-65
2023/04/03 00:22:55;;;;;;;3.20;2.90;;;5.90;99.90;;;;;;5019323;28;20206;-64
2023/04/03 00:25:21;;;;;;;3.67;3.00;;;6.10;99.90;;;;;;5022987;28;20440;-64
2023/04/03 00:27:47;;;;;;;2.80;2.60;;;5.90;99.90;;;;;;5024406;28;20667;-64
2023/04/03 00:30:18;;;;;;;3.50;2.97;;;6.10;99.90;;;;;;5027041;28;20200;-65
2023/04/03 00:32:44;;;;;;;3.30;3.00;;;6.00;99.90;;;;;;5023597;28;20575;-65
2023/04/03 00:35:10;;;;;;;3.20;2.90;;;6.20;99.90;;;;;;5024673;28;20190;-65
2023/04/03 00:37:36;;;;;;;3.77;3.13;;;6.00;99.90;;;;;;5021627;28;20864;-65
2023/04/03 00:40:03;;;;;;;3.40;3.10;;;5.40;99.90;;;;;;5021303;28;20498;-65
2023/04/03 00:42:29;;;;;;;5.28;3.53;;;5.90;99.90;;;;;;5024423;28;20224;-65
2023/04/03 00:44:57;;;;;;;2.60;2.40;;;6.40;99.90;;;;;;5026708;28;20539;-65
2023/04/03 00:47:24;;;;;;;2.70;2.50;;;6.00;99.90;;;;;;5025801;28;20553;-65
2023/04/03 00:49:51;;;;;;;3.30;3.00;;;6.00;99.90;;;;;;5025196;28;20699;-66
2023/04/03 00:52:21;;;;;;;5.78;3.35;;;5.60;99.90;;;;;;5025511;28;20244;-65
2023/04/03 00:54:50;;;;;;;3.30;3.00;;;6.40;99.90;;;;;;5023634;28;20186;-65
2023/04/03 00:57:17;;;;;;;4.47;4.18;;;5.90;99.90;;;;;;5026601;28;20190;-65
2023/04/03 00:59:56;;;;;;;2.70;2.50;;;6.00;99.90;;;;;;5028756;28;20178;-65
2023/04/03 01:02:22;;;;;;;4.05;3.65;;;5.50;99.90;;;;;;5028521;28;20290;-65
2023/04/03 01:04:48;;;;;;;3.40;2.97;;;6.30;99.90;;;;;;5029476;28;20283;-65
2023/04/03 01:07:20;;;;;;;5.27;2.97;;;5.40;99.90;;;;;;5029585;28;20449;-65
2023/04/03 01:09:48;;;;;;;4.95;3.42;;;6.10;99.90;;;;;;5031653;28;20284;-65
2023/04/03 01:12:20;;;;;;;3.95;3.00;;;5.70;99.90;;;;;;5030390;28;20587;-65
2023/04/03 01:14:50;;;;;;;3.03;2.75;;;5.90;99.90;;;;;;5030130;28;20656;-65
2023/04/03 01:17:30;;;;;;;3.72;3.42;;;5.90;99.90;;;;;;5030255;28;20252;-65
2023/04/03 01:20:31;;;;;;;3.95;3.58;;;6.00;99.90;;;;;;5029346;28;20433;-65
2023/04/03 01:23:12;;;;;;;3.45;2.88;;;6.00;99.90;;;;;;5021704;28;20703;-65
2023/04/03 01:25:46;;;;;;;3.40;3.03;;;5.90;99.90;;;;;;5028819;28;20199;-65
2023/04/03 01:28:15;;;;;;;3.05;2.85;;;5.90;99.90;;;;;;5025625;28;20280;-65
2023/04/03 01:31:15;;;;;;;2.85;2.65;;;6.10;99.90;;;;;;5031064;28;20264;-64
2023/04/03 01:33:42;;;;;;;6.35;2.97;;;6.00;99.90;;;;;;5030407;28;20199;-65
2023/04/03 01:36:13;;;;;;;3.63;3.33;;;5.50;99.90;;;;;;5021340;28;20194;-64
2023/04/03 01:38:39;;;;;;;3.50;3.20;;;6.00;99.90;;;;;;5027472;28;20201;-64
2023/04/03 01:41:05;;;;;;;5.17;3.30;;;6.00;99.90;;;;;;5023976;28;20667;-65
2023/04/03 01:43:30;;;;;;;4.60;3.67;;;5.50;99.90;;;;;;5025964;28;20197;-64
2023/04/03 01:45:56;;;;;;;2.93;2.73;;;6.10;99.90;;;;;;5028033;28;20456;-64
2023/04/03 01:48:22;;;;;;;3.50;2.90;;;5.80;99.90;;;;;;5025547;28;20618;-64
2023/04/03 01:50:47;;;;;;;3.30;3.00;;;5.80;99.90;;;;;;5022603;28;20259;-65
2023/04/03 01:53:13;;;;;;;3.27;2.97;;;5.80;99.90;;;;;;5023764;28;20429;-64
2023/04/03 01:55:39;;;;;;;2.90;2.70;;;5.70;99.90;;;;;;5027903;28;20181;-64
2023/04/03 01:58:05;;;;;;;3.57;3.27;;;5.80;99.90;;;;;;5023689;28;20190;-65
2023/04/03 02:00:30;;;;;;;3.70;3.10;;;5.70;99.90;;;;;;5025556;28;20190;-64
2023/04/03 02:02:56;;;;;;;3.87;3.43;;;6.00;99.90;;;;;;5027364;28;20209;-65
2023/04/03 02:05:23;;;;;;;3.50;2.87;;;5.50;99.90;;;;;;5026678;28;20193;-64
2023/04/03 02:07:48;;;;;;;3.20;2.90;;;6.00;99.90;;;;;;5030230;28;20474;-64
2023/04/03 02:10:14;;;;;;;2.93;2.67;;;6.10;99.90;;;;;;5028802;28;20279;-65
2023/04/03 02:12:40;;;;;;;3.50;3.17;;;6.20;99.90;;;;;;5027175;28;20268;-64
2023/04/03 02:15:06;;;;;;;3.03;2.72;;;5.80;99.90;;;;;;5029205;28;20441;-64
2023/04/03 02:17:32;;;;;;;3.47;3.10;;;6.00;99.90;;;;;;5021402;28;20232;-64
2023/04/03 02:19:57;;;;;;;4.20;3.37;;;5.70;99.90;;;;;;5027921;28;20272;-64
2023/04/03 02:22:23;;;;;;;4.13;3.73;;;5.90;99.90;;;;;;5025674;28;20683;-64
2023/04/03 02:24:49;;;;;;;3.80;3.43;;;6.00;99.60;;;;;;5028439;28;20190;-64
2023/04/03 02:27:15;;;;;;;2.97;2.65;;;6.00;99.80;;;;;;5028525;28;20515;-64
2023/04/03 02:29:41;;;;;;;3.10;2.90;;;6.30;99.60;;;;;;5024500;28;20190;-64
2023/04/03 02:32:06;;;;;;;3.47;3.10;;;5.40;99.20;;;;;;5026457;28;20729;-64
2023/04/03 02:34:32;;;;;;;3.57;3.27;;;6.00;99.70;;;;;;5028819;28;20197;-64
2023/04/03 02:36:58;;;;;;;3.60;3.30;;;5.80;99.80;;;;;;5028933;28;20188;-64
2023/04/03 02:39:23;;;;;;;3.40;3.10;;;5.80;99.20;;;;;;5028637;28;20184;-64
2023/04/03 02:41:49;;;;;;;2.73;2.53;;;5.80;98.30;;;;;;5021700;28;20210;-64
2023/04/03 02:44:15;;;;;;;2.93;2.73;;;5.70;97.70;;;;;;5025521;28;20190;-64
2023/04/03 02:46:40;;;;;;;3.20;2.90;;;5.90;98.20;;;;;;5024137;28;20205;-64
2023/04/03 02:49:06;;;;;;;3.40;3.10;;;5.80;99.00;;;;;;5027412;28;20440;-64
2023/04/03 02:51:32;;;;;;;2.83;2.63;;;5.40;98.50;;;;;;5024170;28;20247;-64
2023/04/03 02:53:57;;;;;;;3.20;2.90;;;5.40;98.60;;;;;;5030418;28;20197;-64
2023/04/03 02:56:23;;;;;;;5.47;3.23;;;5.60;98.90;;;;;;5016589;28;20937;-64
2023/04/03 02:58:49;;;;;;;3.50;3.20;;;6.00;98.90;;;;;;5029522;28;20303;-64
2023/04/03 03:01:15;;;;;;;2.97;2.73;;;5.20;98.30;;;;;;5026804;28;20277;-65
2023/04/03 03:03:40;;;;;;;4.23;3.40;;;5.80;99.10;;;;;;5028005;28;20194;-64
2023/04/03 03:06:17;;;;;;;4.13;3.00;;;5.70;98.90;;;;;;5025113;28;21312;-64
2023/04/03 03:08:43;;;;;;;3.35;3.05;;;5.50;98.80;;;;;;5028346;28;20665;-64
2023/04/03 03:11:10;;;;;;;3.33;3.03;;;5.80;98.30;;;;;;5026603;28;20707;-64
2023/04/03 03:13:36;;;;;;;2.92;2.72;;;5.80;98.10;;;;;;5027241;28;20598;-64
2023/04/03 03:16:02;;;;;;;3.70;3.40;;;5.90;98.00;;;;;;5024129;28;20194;-64
2023/04/03 03:18:28;;;;;;;3.15;2.85;;;6.00;97.80;;;;;;5029221;28;20437;-64
2023/04/03 03:20:59;;;;;;;3.15;2.88;;;5.60;97.40;;;;;;5027233;28;20226;-64
2023/04/03 03:23:26;;;;;;;3.40;2.85;;;5.70;98.00;;;;;;5027381;28;20659;-64
2023/04/03 03:25:59;;;;;;;2.92;2.63;;;5.60;98.20;;;;;;5025192;28;20225;-64
2023/04/03 03:28:25;;;;;;;3.30;2.80;;;5.70;98.10;;;;;;5023561;28;21036;-64
2023/04/03 03:30:51;;;;;;;2.73;2.53;;;5.70;97.40;;;;;;5025840;28;20245;-64
2023/04/03 03:33:18;;;;;;;3.10;2.90;;;5.90;98.20;;;;;;5025175;28;20193;-64
2023/04/03 03:35:44;;;;;;;3.10;2.80;;;5.60;98.80;;;;;;5027150;28;20232;-64
2023/04/03 03:38:09;;;;;;;3.23;2.93;;;5.90;98.80;;;;;;5027124;28;20194;-64
2023/04/03 03:40:35;;;;;;;2.90;2.60;;;5.90;98.10;;;;;;5024050;28;20429;-64
2023/04/03 03:43:01;;;;;;;5.40;2.90;;;5.90;98.20;;;;;;5025995;28;20297;-64
2023/04/03 03:45:26;;;;;;;3.40;3.10;;;6.00;97.90;;;;;;5028575;28;20495;-63
2023/04/03 03:47:52;;;;;;;3.20;2.90;;;5.80;98.10;;;;;;5027889;28;20664;-64
2023/04/03 03:50:18;;;;;;;3.20;2.90;;;5.50;98.20;;;;;;5027403;28;20197;-64
2023/04/03 03:52:44;;;;;;;3.10;2.80;;;5.70;98.20;;;;;;5028510;28;20198;-65
2023/04/03 03:55:10;;;;;;;4.65;3.53;;;5.70;98.10;;;;;;5023464;28;20650;-65
2023/04/03 03:57:36;;;;;;;3.30;3.00;;;5.80;98.40;;;;;;5024958;28;20182;-65
2023/04/03 04:00:03;;;;;;;3.97;3.60;;;5.70;98.30;;;;;;5024434;28;20232;-65
2023/04/03 04:02:28;;;;;;;4.05;3.33;;;5.90;98.20;;;;;;5028775;28;20474;-65
2023/04/03 04:04:54;;;;;;;4.03;3.10;;;5.60;98.10;;;;;;5021545;28;20197;-65
2023/04/03 04:07:20;;;;;;;3.53;3.23;;;5.80;98.10;;;;;;5025040;28;21013;-65
2023/04/03 04:09:45;;;;;;;3.07;2.87;;;5.00;97.40;;;;;;5022376;28;20189;-64
2023/04/03 04:12:11;;;;;;;3.20;2.90;;;4.80;96.70;;;;;;5022481;28;20208;-64
2023/04/03 04:14:37;;;;;;;7.87;4.00;;;5.40;97.70;;;;;;5025946;28;20223;-65
2023/04/03 04:17:02;;;;;;;3.13;2.90;;;5.50;97.80;;;;;;5023272;28;20189;-65
2023/04/03 04:19:28;;;;;;;3.17;2.83;;;6.00;98.00;;;;;;5022337;28;20190;-65
2023/04/03 04:21:54;;;;;;;3.50;3.20;;;6.00;97.80;;;;;;5024603;28;20205;-65
2023/04/03 04:24:20;;;;;;;3.60;3.30;;;5.60;97.50;;;;;;5028058;28;20444;-65
2023/04/03 04:26:45;;;;;;;3.33;3.03;;;5.50;97.40;;;;;;5025439;28;20174;-64
2023/04/03 04:29:11;;;;;;;4.70;3.37;;;5.40;98.10;;;;;;5028096;28;20190;-65
2023/04/03 04:31:37;;;;;;;3.47;3.17;;;5.50;97.20;;;;;;5028032;28;20233;-65
2023/04/03 04:34:02;;;;;;;4.03;3.03;;;5.60;96.90;;;;;;5020089;28;20247;-65
2023/04/03 04:36:28;;;;;;;3.10;2.90;;;5.50;96.60;;;;;;5026008;28;20531;-64
2023/04/03 04:38:54;;;;;;;3.50;2.97;;;5.40;96.60;;;;;;5031083;28;20178;-65
2023/04/03 04:41:22;;;;;;;3.13;2.83;;;5.70;96.50;;;;;;5025120;28;20244;-64
2023/04/03 04:43:52;;;;;;;2.88;2.67;;;5.70;96.30;;;;;;5022919;28;20189;-65
2023/04/03 04:46:18;;;;;;;3.13;2.90;;;5.50;96.30;;;;;;5027777;28;20190;-65
2023/04/03 04:48:44;;;;;;;5.00;3.08;;;5.90;96.60;;;;;;5024188;28;20531;-65
2023/04/03 04:51:10;;;;;;;3.38;3.10;;;5.70;96.10;;;;;;5027674;28;20214;-65
2023/04/03 04:53:35;;;;;;;16.40;9.80;;;5.60;96.60;;;;;;5028896;28;20214;-65
2023/04/03 04:56:02;;;;;;;5.10;3.27;;;5.50;96.30;;;;;;5027575;28;20229;-64
2023/04/03 04:58:27;;;;;;;3.00;2.80;;;5.80;96.10;;;;;;5024031;28;20277;-65
2023/04/03 05:01:19;;;;;;;3.30;3.10;;;5.50;95.90;;;;;;5025524;28;20268;-66
2023/04/03 05:03:45;;;;;;;4.55;2.42;;;6.20;96.50;;;;;;5025685;28;20260;-66
2023/04/03 05:06:11;;;;;;;2.60;2.30;;;5.60;95.40;;;;;;5025346;28;20685;-66
2023/04/03 05:08:37;;;;;;;4.70;2.43;;;5.60;94.30;;;;;;5028007;28;20423;-65
2023/04/03 05:11:02;;;;;;;3.17;2.60;;;5.60;94.50;;;;;;5027500;28;20221;-65
2023/04/03 05:13:28;;;;;;;3.13;2.83;;;5.60;94.20;;;;;;5019831;28;20245;-65
2023/04/03 05:15:53;;;;;;;3.30;3.00;;;5.70;94.10;;;;;;5024807;28;20554;-66
2023/04/03 05:18:19;;;;;;;4.90;3.10;;;5.80;94.50;;;;;;5026375;28;20185;-66
2023/04/03 05:20:45;;;;;;;10.20;3.67;;;5.70;94.30;;;;;;5024399;28;20240;-66
2023/04/03 05:23:11;;;;;;;4.30;2.60;;;5.90;94.60;;;;;;5024861;28;20198;-65
2023/04/03 05:25:40;;;;;;;3.42;3.13;;;6.00;95.40;;;;;;5026857;28;20196;-65
2023/04/03 05:28:06;;;;;;;3.83;3.20;;;5.90;94.90;;;;;;5025686;28;20204;-63
2023/04/03 05:30:32;;;;;;;3.85;2.58;;;6.00;95.20;;;;;;5024820;28;20186;-63
2023/04/03 05:32:59;;;;;;;2.93;2.63;;;6.50;94.80;;;;;;5027023;28;20224;-64
2023/04/03 05:35:24;;;;;;;2.60;2.40;;;6.00;94.50;;;;;;5026080;28;20265;-67
2023/04/03 05:37:50;;;;;;;3.30;2.97;;;5.80;94.70;;;;;;5027312;28;20278;-63
2023/04/03 05:40:16;;;;;;;3.20;2.90;;;5.70;94.80;;;;;;5028139;28;20228;-64
2023/04/03 05:42:42;;;;;;;2.93;2.63;;;6.00;95.10;;;;;;5026047;28;20472;-64
2023/04/03 05:45:08;;;;;;;3.77;3.07;;;5.80;95.00;;;;;;5027462;28;20440;-65
2023/04/03 05:47:33;;;;;;;2.90;2.67;;;6.00;95.10;;;;;;5024534;28;20194;-65
2023/04/03 05:49:59;;;;;;;3.03;2.60;;;6.00;95.20;;;;;;5026931;28;20540;-66
2023/04/03 05:52:30;;;;;;;3.20;2.83;;;5.90;94.90;;;;;;5024819;28;20252;-68
2023/04/03 05:54:56;;;;;;;9.25;3.05;;;6.00;95.30;;;;;;5025075;28;20234;-66
2023/04/03 05:57:22;;;;;;;4.65;3.22;;;5.60;95.20;;;;;;5022960;28;20192;-66
2023/04/03 05:59:48;;;;;;;4.30;3.90;;;5.90;95.90;;;;;;5026540;28;20272;-66
2023/04/03 06:02:17;;;;;;;3.70;3.33;;;6.40;95.70;;;;;;5022446;28;20643;-65
2023/04/03 06:04:43;;;;;;;3.22;2.67;;;5.90;95.00;;;;;;5021868;28;20186;-62
2023/04/03 06:07:20;;;;;;;4.65;2.85;;;5.80;94.80;;;;;;5023143;28;20562;-62
2023/04/03 06:09:47;;;;;;;3.65;3.35;;;6.00;95.50;;;;;;5021872;28;20194;-66
2023/04/03 06:12:13;;;;;;;8.32;7.38;;;5.90;94.90;;;;;;5023010;28;20597;-64
2023/04/03 06:14:38;;;;;;;12.23;10.30;;;6.20;94.90;;;;;;5025109;28;20186;-69
2023/04/03 06:17:05;;;;;;;8.63;7.70;;;6.30;95.40;;;;;;5028836;28;20433;-69
2023/04/03 06:19:31;;;;;;;5.72;3.55;;;6.10;95.80;;;;;;5024142;28;20719;-70
2023/04/03 06:21:57;;;;;;;3.13;2.83;;;6.50;94.10;;;;;;5021360;28;20211;-70
2023/04/03 06:24:23;;;;;;;3.77;2.70;;;6.60;94.30;;;;;;5023852;28;20190;-70
2023/04/03 06:26:51;;;;;;;3.35;2.90;;;6.10;93.70;;;;;;5024239;28;20827;-69
2023/04/03 06:29:17;;;;;;;2.47;2.38;;;6.50;94.30;;;;;;5024277;28;20643;-68
2023/04/03 06:31:43;;;;;;;2.63;2.42;;;6.50;94.50;;;;;;5023321;28;20216;-66
2023/04/03 06:34:10;;;;;;;5.20;2.90;;;6.60;95.50;;;;;;5027613;28;20178;-64
2023/04/03 06:36:36;;;;;;;3.40;2.97;;;6.80;95.20;;;;;;5023470;28;20941;-64
2023/04/03 06:39:02;;;;;;;2.80;2.50;;;6.80;94.00;;;;;;5026693;28;20197;-66
2023/04/03 06:41:28;;;;;;;2.95;2.60;;;6.70;94.00;;;;;;5026988;28;20735;-64
2023/04/03 06:43:56;;;;;;;2.43;2.20;;;6.70;93.80;;;;;;5027866;28;20313;-64
2023/04/03 06:46:22;;;;;;;4.22;2.65;;;6.70;94.00;;;;;;5022207;28;20187;-64
2023/04/03 06:48:49;;;;;;;4.40;3.17;;;6.20;93.60;;;;;;5026604;28;20269;-68
2023/04/03 06:51:24;;;;;;;2.92;2.50;;;6.70;96.00;;;;;;5020614;28;20706;-67
2023/04/03 06:53:52;;;;;;;2.70;2.50;;;6.90;94.00;;;;;;5022840;28;20190;-66
2023/04/03 06:56:19;;;;;;;3.20;2.90;;;6.70;93.80;;;;;;5016998;28;20178;-69
2023/04/03 06:58:46;;;;;;;4.97;3.30;;;6.90;94.20;;;;;;5025528;28;20209;-70
2023/04/03 07:01:13;;;;;;;3.42;3.10;;;6.40;94.60;;;;;;5019028;28;20345;-69
2023/04/03 07:03:40;;;;;;;3.42;3.13;;;6.80;94.40;;;;;;5020976;28;20186;-69
2023/04/03 07:06:07;;;;;;;2.83;2.50;;;6.30;94.70;;;;;;5023783;28;20717;-67
2023/04/03 07:08:34;;;;;;;3.30;2.97;;;6.80;94.40;;;;;;5023256;28;20783;-64
2023/04/03 07:11:00;;;;;;;4.53;3.65;;;6.70;94.50;;;;;;5026715;28;20199;-66
2023/04/03 07:13:26;;;;;;;3.75;2.40;;;7.00;94.70;;;;;;5026058;28;20175;-67
2023/04/03 07:15:52;;;;;;;17.15;11.25;;;6.30;94.00;;;;;;5028289;28;20186;-67
2023/04/03 07:18:18;;;;;;;6.25;3.17;;;6.50;94.50;;;;;;5029088;28;20232;-66
2023/04/03 07:20:45;;;;;;;2.80;2.60;;;7.20;94.40;;;;;;5021997;28;20190;-64
2023/04/03 07:23:10;;;;;;;3.45;2.97;;;7.20;94.70;;;;;;5025743;28;20179;-65
2023/04/03 07:25:37;;;;;;;3.10;2.87;;;7.40;94.80;;;;;;5027829;28;20192;-66
2023/04/03 07:28:03;;;;;;;5.45;3.20;;;7.10;93.40;;;;;;5020644;28;20450;-67
2023/04/03 07:30:29;;;;;;;3.95;3.05;;;7.40;93.50;;;;;;5022070;28;20182;-65
2023/04/03 07:32:55;;;;;;;3.70;3.20;;;7.40;94.30;;;;;;5020778;28;20203;-67
2023/04/03 07:35:21;;;;;;;3.70;2.83;;;7.50;95.10;;;;;;5020427;28;20190;-68
2023/04/03 07:37:46;;;;;;;5.47;3.20;;;7.60;93.30;;;;;;5021689;28;20430;-66
2023/04/03 07:40:12;;;;;;;3.50;3.20;;;7.80;93.00;;;;;;5026343;28;20186;-66
2023/04/03 07:42:38;;;;;;;4.30;3.03;;;7.80;93.30;;;;;;5023492;28;20216;-67
2023/04/03 07:45:04;;;;;;;2.90;2.70;;;7.70;92.90;;;;;;5020342;28;20444;-66
2023/04/03 07:47:31;;;;;;;3.28;2.60;;;7.50;93.40;;;;;;5023192;28;20190;-67
2023/04/03 07:49:57;;;;;;;2.70;2.50;;;7.70;93.20;;;;;;5020321;28;20236;-65
2023/04/03 07:52:23;;;;;;;2.85;2.50;;;7.80;92.90;;;;;;5017938;28;20222;-64
2023/04/03 07:54:48;;;;;;;3.45;3.03;;;7.60;93.10;;;;;;5027738;28;20209;-63
2023/04/03 07:57:14;;;;;;;2.77;2.53;;;7.80;92.70;;;;;;5021646;28;20229;-63
2023/04/03 07:59:42;;;;;;;3.33;2.33;;;7.80;92.90;;;;;;5022915;28;20240;-63
2023/04/03 08:02:09;;;;;;;4.60;2.72;;;7.70;92.60;;;;;;5020576;28;20528;-63
2023/04/03 08:04:35;;;;;;;3.40;3.10;;;7.50;92.60;;;;;;5021945;28;20248;-64
2023/04/03 08:07:01;;;;;;;4.17;2.97;;;7.80;93.20;;;;;;5024821;28;20205;-63
2023/04/03 08:09:26;;;;;;;3.70;2.97;;;7.60;93.10;;;;;;5029761;28;20233;-64
2023/04/03 08:11:53;;;;;;;5.17;3.20;;;7.70;93.00;;;;;;5025745;28;20209;-64
2023/04/03 08:14:20;;;;;;;5.80;2.60;;;8.20;93.30;;;;;;5024443;28;20555;-64
2023/04/03 08:16:47;;;;;;;3.42;2.95;;;8.00;92.30;;;;;;5025950;28;20262;-63
2023/04/03 08:19:16;;;;;;;4.45;2.50;;;8.10;92.20;;;;;;5022640;28;20643;-63
2023/04/03 08:21:42;;;;;;;3.03;2.63;;;7.80;92.00;;;;;;5024226;28;20683;-65
2023/04/03 08:24:08;;;;;;;2.93;2.63;;;7.70;92.40;;;;;;5027576;28;20243;-65
2023/04/03 08:26:34;;;;;;;3.78;2.88;;;7.90;92.80;;;;;;5020294;28;20196;-67
2023/04/03 08:29:00;;;;;;;4.03;2.83;;;7.80;93.50;;;;;;5021955;28;20195;-68
2023/04/03 08:31:26;;;;;;;3.85;3.05;;;8.20;93.30;;;;;;5026293;28;20451;-68
2023/04/03 08:33:52;;;;;;;3.37;3.07;;;7.90;92.50;;;;;;5023910;28;20675;-66
2023/04/03 08:36:26;;;;;;;3.13;2.87;;;8.10;93.00;;;;;;5025035;28;20178;-66
2023/04/03 08:38:53;;;;;;;4.35;3.10;;;7.80;93.30;;;;;;5019842;28;20281;-67
2023/04/03 08:41:57;;;;;;;8.07;3.40;;;8.10;93.00;;;;;;5026621;28;20252;-65
2023/04/03 08:44:57;;;;;;;7.03;4.68;;;8.10;93.30;;;;;;5023559;28;20193;-68
2023/04/03 08:47:52;;;;;;;4.05;3.20;;;7.90;93.40;;;;;;5002395;28;20221;-69
2023/04/03 08:50:29;;;;;;;3.50;3.20;;;8.20;93.10;;;;;;5021126;28;20214;-67
2023/04/03 08:53:00;;;;;;;6.45;5.75;;;8.20;92.90;;;;;;5022275;28;20585;-67
2023/04/03 08:55:34;;;;;;;5.47;3.40;;;8.40;92.70;;;;;;5027944;28;20191;-64
2023/04/03 08:58:12;;;;;;;4.72;3.33;;;8.40;92.50;;;;;;5020146;28;20633;-68
2023/04/03 09:00:55;;;;;;;5.40;2.90;;;8.90;92.30;;;;;;5025440;28;20179;-67
2023/04/03 09:03:22;;;;;;;7.53;4.00;;;9.10;91.70;;;;;;5021409;28;20664;-68
2023/04/03 09:06:00;;;;;;;4.45;3.22;;;8.80;90.90;;;;;;5025833;28;20279;-66
2023/04/03 09:08:29;;;;;;;4.18;2.85;;;9.40;90.30;;;;;;5024624;28;20186;-66
2023/04/03 09:11:36;;;;;;;2.70;2.50;;;9.10;89.10;;;;;;5025634;28;20199;-67
2023/04/03 09:14:26;;;;;;;2.75;2.40;;;9.30;90.10;;;;;;5023646;28;20234;-68
2023/04/03 09:16:54;;;;;;;3.25;2.90;;;9.00;90.30;;;;;;5022161;28;20191;-62
2023/04/03 09:19:23;;;;;;;5.20;2.90;;;8.90;90.70;;;;;;5023210;28;20651;-63
2023/04/03 09:21:49;;;;;;;3.80;3.38;;;9.40;90.50;;;;;;5028888;28;20206;-64
2023/04/03 09:24:16;;;;;;;3.30;3.00;;;9.60;89.50;;;;;;5023919;28;20191;-64
2023/04/03 09:26:46;;;;;;;3.55;3.22;;;9.60;88.90;;;;;;5027104;28;20448;-64
2023/04/03 09:29:18;;;;;;;3.35;2.80;;;9.80;88.80;;;;;;5027350;28;20206;-64
2023/04/03 09:31:46;;;;;;;3.75;2.60;;;9.70;87.80;;;;;;5022420;28;20727;-64
2023/04/03 09:34:22;;;;;;;4.80;2.97;;;9.30;87.60;;;;;;5027626;28;20226;-64
2023/04/03 09:36:53;;;;;;;3.50;3.00;;;8.90;88.30;;;;;;5021815;28;20186;-64
2023/04/03 09:39:24;;;;;;;5.18;3.15;;;8.80;89.50;;;;;;5023691;28;20226;-65
2023/04/03 09:42:18;;;;;;;3.38;3.08;;;8.70;90.50;;;;;;5024014;28;20551;-64
2023/04/03 09:44:57;;;;;;;4.50;2.65;;;8.50;90.30;;;;;;5026528;28;20190;-64
2023/04/03 09:47:34;;;;;;;2.95;2.53;;;8.60;90.40;;;;;;5024584;28;20583;-64
2023/04/03 09:50:12;;;;;;;8.00;2.90;;;8.80;90.20;;;;;;5017276;28;20507;-65
2023/04/03 09:52:40;;;;;;;3.00;2.40;;;8.60;88.70;;;;;;5019117;28;20704;-64
2023/04/03 09:55:08;;;;;;;2.67;2.47;;;8.70;89.10;;;;;;5021338;28;20210;-64
2023/04/03 09:57:33;;;;;;;4.47;3.50;;;8.50;88.60;;;;;;5024049;28;20185;-64
2023/04/03 10:00:04;;;;;;;3.50;2.70;;;8.50;89.80;;;;;;5022265;28;20180;-64
2023/04/03 10:02:42;;;;;;;3.17;2.80;;;8.30;89.40;;;;;;5027188;28;20613;-62
2023/04/03 10:05:26;;;;;;;2.97;2.33;;;8.70;89.90;;;;;;5026752;28;20193;-62
2023/04/03 10:07:52;;;;;;;2.78;2.58;;;8.40;90.10;;;;;;5019172;28;20686;-63
2023/04/03 10:10:20;;;;;;;4.10;3.13;;;7.90;90.40;;;;;;5026513;28;20195;-63
2023/04/03 10:12:46;;;;;;;2.97;2.78;;;8.20;90.80;;;;;;5021534;28;20225;-63
2023/04/03 10:15:18;;;;;;;6.78;3.25;;;8.30;90.90;;;;;;5027433;28;20186;-63
2023/04/03 10:18:07;;;;;;;6.13;3.15;;;8.50;90.70;;;;;;5027083;28;20187;-63
2023/04/03 10:20:38;;;;;;;2.65;2.45;;;8.20;90.20;;;;;;5027708;28;20190;-63
2023/04/03 10:23:26;;;;;;;6.85;3.13;;;8.20;90.50;;;;;;5027606;28;20214;-63
2023/04/03 10:26:15;;;;;;;3.53;2.50;;;8.20;90.40;;;;;;5025124;28;20201;-63
2023/04/03 10:28:49;;;;;;;4.95;2.80;;;8.40;89.40;;;;;;5021281;28;20680;-63
2023/04/03 10:31:30;;;;;;;3.10;2.80;;;8.40;89.40;;;;;;5025164;28;20226;-64
2023/04/03 10:34:06;;;;;;;3.35;2.45;;;8.50;89.10;;;;;;5024788;28;20186;-63
2023/04/03 10:37:01;;;;;;;3.67;2.58;;;8.60;88.80;;;;;;5020185;28;20278;-64
2023/04/03 10:39:41;;;;;;;2.65;2.45;;;8.70;88.50;;;;;;5027680;28;20243;-63
2023/04/03 10:42:23;;;;;;;2.97;2.72;;;8.50;87.60;;;;;;5025654;28;20242;-64
2023/04/03 10:45:01;;;;;;;5.93;3.88;;;8.40;87.60;;;;;;5022402;28;20236;-64
2023/04/03 10:47:47;;;;;;;3.00;2.40;;;8.40;88.50;;;;;;5026890;28;20560;-64
2023/04/03 10:50:13;;;;;;;3.15;2.60;;;8.30;88.90;;;;;;5022125;28;20194;-63
2023/04/03 10:52:47;;;;;;;3.10;2.50;;;8.50;89.50;;;;;;5024639;28;20237;-64
2023/04/03 10:55:42;;;;;;;5.07;2.92;;;8.30;89.30;;;;;;5023775;28;20197;-64
2023/04/03 10:58:33;;;;;;;2.97;2.67;;;8.40;88.70;;;;;;5025105;28;20198;-64
2023/04/03 11:01:22;;;;;;;2.80;2.35;;;8.80;86.70;;;;;;5023096;28;20540;-65
2023/04/03 11:03:54;;;;;;;4.45;2.60;;;8.80;87.80;;;;;;5021215;28;20624;-65
2023/04/03 11:06:23;;;;;;;3.35;2.60;;;8.80;86.20;;;;;;5023319;28;20691;-64
2023/04/03 11:09:03;;;;;;;2.60;2.40;;;8.90;86.00;;;;;;5019470;28;20652;-63
2023/04/03 11:11:32;;;;;;;3.17;2.75;;;8.50;86.30;;;;;;5017569;28;20587;-62
2023/04/03 11:14:15;;;;;;;4.05;2.28;;;8.10;87.00;;;;;;5019285;28;20669;-62
2023/04/03 11:16:46;;;;;;;3.65;3.17;;;8.50;86.60;;;;;;5024043;28;20186;-64
2023/04/03 11:19:39;;;;;;;2.50;2.10;;;8.80;86.60;;;;;;5022432;28;20211;-65
2023/04/03 11:22:09;;;;;;;3.80;1.92;;;8.60;82.80;;;;;;5020096;28;20226;-64
2023/04/03 11:24:39;;;;;;;4.15;2.22;;;9.30;82.90;;;;;;5024058;28;20220;-64
2023/04/03 11:27:08;;;;;;;2.65;2.45;;;8.80;82.10;;;;;;5020997;28;20679;-63
2023/04/03 11:29:39;;;;;;;2.75;2.45;;;8.80;82.60;;;;;;5025520;28;22191;-64
2023/04/03 11:32:37;;;;;;;7.25;2.85;;;8.90;81.90;;;;;;5025631;28;20300;-64
2023/04/03 11:35:05;;;;;;;3.95;2.30;;;8.90;81.70;;;;;;5022638;28;20190;-64
2023/04/03 11:37:52;;;;;;;2.60;2.40;;;8.60;81.70;;;;;;5019969;28;20240;-64
2023/04/03 11:40:33;;;;;;;2.55;2.20;;;8.00;82.50;;;;;;5027768;28;20186;-64
2023/04/03 11:43:26;;;;;;;2.92;2.67;;;8.40;83.10;;;;;;5023748;28;20210;-64
2023/04/03 11:46:02;;;;;;;4.32;2.88;;;8.70;83.50;;;;;;5022307;28;20194;-64
2023/04/03 11:48:33;;;;;;;2.95;2.20;;;8.60;83.30;;;;;;5024272;28;20186;-64
2023/04/03 11:51:00;;;;;;;2.40;2.00;;;8.50;82.10;;;;;;5027271;28;20296;-63
2023/04/03 11:53:35;;;;;;;2.90;2.10;;;8.40;82.90;;;;;;5021169;28;20202;-64
2023/04/03 11:56:02;;;;;;;3.33;2.38;;;8.50;84.00;;;;;;5023276;28;20183;-64
2023/04/03 11:58:30;;;;;;;2.17;1.85;;;8.30;82.30;;;;;;5026976;28;20183;-63
2023/04/03 12:01:02;;;;;;;3.67;2.03;;;8.50;80.30;;;;;;5018570;28;20240;-64
2023/04/03 12:03:31;;;;;;;6.78;2.50;;;8.50;80.80;;;;;;5027254;28;20175;-63
2023/04/03 12:06:16;;;;;;;2.40;2.20;;;8.70;82.40;;;;;;5024673;28;20221;-64
2023/04/03 12:08:42;;;;;;;2.08;1.73;;;8.70;80.80;;;;;;5024132;28;20616;-64
2023/04/03 12:11:10;;;;;;;3.23;2.27;;;8.70;81.20;;;;;;5018465;28;20456;-64
2023/04/03 12:14:04;;;;;;;2.75;2.55;;;8.90;80.90;;;;;;5025026;28;20178;-63
2023/04/03 12:16:39;;;;;;;3.30;2.38;;;8.60;81.00;;;;;;5018664;28;20682;-63
2023/04/03 12:19:14;;;;;;;7.57;2.90;;;8.70;82.20;;;;;;5017231;28;20193;-63
2023/04/03 12:21:48;;;;;;;2.40;2.05;;;8.50;82.40;;;;;;5023765;28;20241;-63
2023/04/03 12:24:17;;;;;;;2.75;2.03;;;8.50;84.10;;;;;;5023456;28;20275;-64
2023/04/03 12:27:21;;;;;;;2.63;2.30;;;8.70;82.60;;;;;;5023358;28;20214;-64
2023/04/03 12:30:13;;;;;;;2.20;2.00;;;8.60;81.50;;;;;;5023343;28;20596;-63
2023/04/03 12:32:45;;;;;;;1.90;1.80;;;8.70;81.10;;;;;;5023574;28;20710;-64
2023/04/03 12:35:24;;;;;;;3.90;2.25;;;8.80;81.90;;;;;;5022420;28;20221;-69
2023/04/03 12:38:30;;;;;;;3.03;1.98;;;8.70;80.80;;;;;;5025196;28;20553;-68
2023/04/03 12:41:14;;;;;;;3.53;2.20;;;8.70;80.40;;;;;;5021198;28;20637;-68
2023/04/03 12:43:46;;;;;;;4.85;2.50;;;8.80;81.90;;;;;;5023383;28;20375;-68
2023/04/03 12:46:18;;;;;;;8.07;2.67;;;8.70;81.30;;;;;;5020521;28;20218;-69
2023/04/03 12:48:54;;;;;;;10.95;2.42;;;8.90;81.30;;;;;;5028225;28;20178;-68
2023/04/03 12:51:30;;;;;;;3.15;2.30;;;8.70;80.20;;;;;;5019111;28;20284;-69
2023/04/03 12:54:12;;;;;;;3.38;2.00;;;8.80;78.90;;;;;;5023341;28;20285;-69
2023/04/03 12:56:39;;;;;;;3.75;2.10;;;8.80;78.20;;;;;;5026653;28;20266;-68
2023/04/03 12:59:24;;;;;;;4.18;2.45;;;9.00;78.40;;;;;;5030746;28;20183;-69
2023/04/03 13:01:59;;;;;;;3.15;2.08;;;9.20;78.80;;;;;;5018500;28;20580;-68
2023/04/03 13:04:25;;;;;;;2.63;2.20;;;9.10;76.40;;;;;;5025170;28;20216;-68
2023/04/03 13:06:51;;;;;;;3.05;2.47;;;9.00;77.20;;;;;;5023789;28;20675;-69
2023/04/03 13:09:29;;;;;;;2.53;2.33;;;9.30;78.00;;;;;;5028993;28;20221;-69
2023/04/03 13:12:11;;;;;;;4.07;2.17;;;8.70;77.20;;;;;;5022077;28;20477;-69
2023/04/03 13:14:37;;;;;;;2.95;1.70;;;9.50;76.80;;;;;;5028298;28;20188;-69